sensor_id;sensor_type;location;lat;lon;timestamp;P1;durP1;ratioP1;P2;durP2;ratioP2
11000;SDS011;5553;48.506;8.870;2023-02-28T00:01:36;3.87;;;2.70;;
11000;SDS011;5553;48.506;8.870;2023-02-28T00:04:07;2.80;;;2.53;;
11000;SDS011;5553;48.506;8.870;2023-02-28T00:06:35;2.93;;;2.17;;
11000;SDS011;5553;48.506;8.870;2023-02-28T00:09:04;4.83;;;2.97;;
11000;SDS011;5553;48.506;8.870;2023-02-28T00:11:32;3.17;;;2.57;;
11000;SDS011;5553;48.506;8.870;2023-02-28T00:14:02;4.13;;;2.53;;
11000;SDS011;5553;48.506;8.870;2023-02-28T00:16:31;4.00;;;2.03;;
11000;SDS011;5553;48.506;8.870;2023-02-28T00:18:59;3.10;;;2.23;;
11000;SDS011;5553;48.506;8.870;2023-02-28T00:21:30;2.20;;;2.00;;
11000;SDS011;5553;48.506;8.870;2023-02-28T00:23:58;2.50;;;2.30;;
11000;SDS011;5553;48.506;8.870;2023-02-28T00:26:27;2.60;;;2.23;;
11000;SDS011;5553;48.506;8.870;2023-02-28T00:28:55;4.50;;;2.80;;
11000;SDS011;5553;48.506;8.870;2023-02-28T00:31:23;2.80;;;2.50;;
11000;SDS011;5553;48.506;8.870;2023-02-28T00:33:51;3.03;;;2.40;;
11000;SDS011;5553;48.506;8.870;2023-02-28T00:36:19;3.60;;;2.43;;
11000;SDS011;5553;48.506;8.870;2023-02-28T00:38:50;5.83;;;2.80;;
11000;SDS011;5553;48.506;8.870;2023-02-28T00:41:18;3.00;;;2.20;;
11000;SDS011;5553;48.506;8.870;2023-02-28T00:43:47;2.70;;;2.40;;
11000;SDS011;5553;48.506;8.870;2023-02-28T00:46:15;2.63;;;1.93;;
11000;SDS011;5553;48.506;8.870;2023-02-28T00:48:43;4.17;;;2.57;;
11000;SDS011;5553;48.506;8.870;2023-02-28T00:51:12;4.43;;;2.63;;
11000;SDS011;5553;48.506;8.870;2023-02-28T00:53:40;4.40;;;3.07;;
11000;SDS011;5553;48.506;8.870;2023-02-28T00:56:11;6.50;;;2.67;;
11000;SDS011;5553;48.506;8.870;2023-02-28T00:58:39;4.47;;;2.93;;
11000;SDS011;5553;48.506;8.870;2023-02-28T01:01:07;3.67;;;2.50;;
11000;SDS011;5553;48.506;8.870;2023-02-28T01:03:35;3.77;;;2.40;;
11000;SDS011;5553;48.506;8.870;2023-02-28T01:06:04;5.00;;;2.13;;
11000;SDS011;5553;48.506;8.870;2023-02-28T01:08:32;3.97;;;2.40;;
11000;SDS011;5553;48.506;8.870;2023-02-28T01:11:06;3.50;;;2.27;;
11000;SDS011;5553;48.506;8.870;2023-02-28T01:13:38;3.90;;;2.40;;
11000;SDS011;5553;48.506;8.870;2023-02-28T01:16:07;5.17;;;3.10;;
11000;SDS011;5553;48.506;8.870;2023-02-28T01:18:35;3.60;;;2.73;;
11000;SDS011;5553;48.506;8.870;2023-02-28T01:21:04;6.60;;;2.50;;
11000;SDS011;5553;48.506;8.870;2023-02-28T01:23:33;4.47;;;2.43;;
11000;SDS011;5553;48.506;8.870;2023-02-28T01:26:05;3.27;;;2.27;;
11000;SDS011;5553;48.506;8.870;2023-02-28T01:28:34;2.97;;;2.47;;
11000;SDS011;5553;48.506;8.870;2023-02-28T01:31:05;2.83;;;2.30;;
11000;SDS011;5553;48.506;8.870;2023-02-28T01:33:34;5.23;;;2.50;;
11000;SDS011;5553;48.506;8.870;2023-02-28T01:36:03;3.17;;;2.50;;
11000;SDS011;5553;48.506;8.870;2023-02-28T01:38:33;6.00;;;2.47;;
11000;SDS011;5553;48.506;8.870;2023-02-28T01:41:02;4.47;;;2.83;;
11000;SDS011;5553;48.506;8.870;2023-02-28T01:43:32;7.03;;;3.03;;
11000;SDS011;5553;48.506;8.870;2023-02-28T01:46:22;3.80;;;2.30;;
11000;SDS011;5553;48.506;8.870;2023-02-28T01:48:51;3.87;;;2.57;;
11000;SDS011;5553;48.506;8.870;2023-02-28T01:51:22;5.50;;;2.23;;
11000;SDS011;5553;48.506;8.870;2023-02-28T01:53:55;3.10;;;2.30;;
11000;SDS011;5553;48.506;8.870;2023-02-28T01:56:27;4.40;;;3.17;;
11000;SDS011;5553;48.506;8.870;2023-02-28T01:59:01;2.83;;;2.50;;
11000;SDS011;5553;48.506;8.870;2023-02-28T02:01:33;3.50;;;2.40;;
11000;SDS011;5553;48.506;8.870;2023-02-28T02:04:01;2.37;;;2.17;;
11000;SDS011;5553;48.506;8.870;2023-02-28T02:06:34;1.87;;;1.70;;
11000;SDS011;5553;48.506;8.870;2023-02-28T02:09:04;3.23;;;2.23;;
11000;SDS011;5553;48.506;8.870;2023-02-28T02:11:33;3.13;;;2.10;;
11000;SDS011;5553;48.506;8.870;2023-02-28T02:14:07;6.87;;;3.53;;
11000;SDS011;5553;48.506;8.870;2023-02-28T02:16:54;4.60;;;2.60;;
11000;SDS011;5553;48.506;8.870;2023-02-28T02:22:48;2.87;;;2.20;;
11000;SDS011;5553;48.506;8.870;2023-02-28T02:25:35;7.07;;;4.50;;
11000;SDS011;5553;48.506;8.870;2023-02-28T02:28:31;4.73;;;3.20;;
11000;SDS011;5553;48.506;8.870;2023-02-28T02:34:45;4.40;;;2.97;;
11000;SDS011;5553;48.506;8.870;2023-02-28T02:37:27;4.28;;;2.70;;
11000;SDS011;5553;48.506;8.870;2023-02-28T02:40:07;5.33;;;3.00;;
11000;SDS011;5553;48.506;8.870;2023-02-28T02:42:42;7.07;;;3.60;;
11000;SDS011;5553;48.506;8.870;2023-02-28T02:45:17;2.90;;;2.53;;
11000;SDS011;5553;48.506;8.870;2023-02-28T02:47:50;7.93;;;3.37;;
11000;SDS011;5553;48.506;8.870;2023-02-28T02:50:22;2.67;;;2.40;;
11000;SDS011;5553;48.506;8.870;2023-02-28T02:52:55;4.47;;;2.27;;
11000;SDS011;5553;48.506;8.870;2023-02-28T02:55:27;5.43;;;3.22;;
11000;SDS011;5553;48.506;8.870;2023-02-28T02:57:57;4.93;;;3.27;;
11000;SDS011;5553;48.506;8.870;2023-02-28T03:00:29;3.93;;;3.03;;
11000;SDS011;5553;48.506;8.870;2023-02-28T03:03:02;4.13;;;2.80;;
11000;SDS011;5553;48.506;8.870;2023-02-28T03:05:34;8.00;;;3.03;;
11000;SDS011;5553;48.506;8.870;2023-02-28T03:08:09;6.30;;;3.20;;
11000;SDS011;5553;48.506;8.870;2023-02-28T03:10:38;4.73;;;2.83;;
11000;SDS011;5553;48.506;8.870;2023-02-28T03:13:11;4.90;;;3.10;;
11000;SDS011;5553;48.506;8.870;2023-02-28T03:15:58;6.00;;;3.33;;
11000;SDS011;5553;48.506;8.870;2023-02-28T03:18:40;5.70;;;3.50;;
11000;SDS011;5553;48.506;8.870;2023-02-28T03:21:20;6.73;;;2.90;;
11000;SDS011;5553;48.506;8.870;2023-02-28T03:23:55;5.13;;;3.10;;
11000;SDS011;5553;48.506;8.870;2023-02-28T03:26:31;6.43;;;3.25;;
11000;SDS011;5553;48.506;8.870;2023-02-28T03:29:04;5.20;;;3.30;;
11000;SDS011;5553;48.506;8.870;2023-02-28T03:31:43;4.50;;;3.27;;
11000;SDS011;5553;48.506;8.870;2023-02-28T03:34:17;6.83;;;2.93;;
11000;SDS011;5553;48.506;8.870;2023-02-28T03:36:53;4.30;;;2.97;;
11000;SDS011;5553;48.506;8.870;2023-02-28T03:39:26;3.37;;;3.07;;
11000;SDS011;5553;48.506;8.870;2023-02-28T03:42:00;5.00;;;3.40;;
11000;SDS011;5553;48.506;8.870;2023-02-28T03:44:34;4.60;;;3.10;;
11000;SDS011;5553;48.506;8.870;2023-02-28T03:47:07;10.33;;;3.27;;
11000;SDS011;5553;48.506;8.870;2023-02-28T03:49:41;4.30;;;3.60;;
11000;SDS011;5553;48.506;8.870;2023-02-28T03:52:16;4.17;;;3.33;;
11000;SDS011;5553;48.506;8.870;2023-02-28T03:54:48;6.77;;;3.90;;
11000;SDS011;5553;48.506;8.870;2023-02-28T03:57:23;5.33;;;3.60;;
11000;SDS011;5553;48.506;8.870;2023-02-28T03:59:59;6.97;;;3.87;;
11000;SDS011;5553;48.506;8.870;2023-02-28T04:02:31;4.23;;;2.90;;
11000;SDS011;5553;48.506;8.870;2023-02-28T04:05:00;3.57;;;3.27;;
11000;SDS011;5553;48.506;8.870;2023-02-28T04:07:31;5.97;;;3.70;;
11000;SDS011;5553;48.506;8.870;2023-02-28T04:10:00;8.73;;;3.83;;
11000;SDS011;5553;48.506;8.870;2023-02-28T04:12:28;5.03;;;4.37;;
11000;SDS011;5553;48.506;8.870;2023-02-28T04:14:57;7.70;;;4.17;;
11000;SDS011;5553;48.506;8.870;2023-02-28T04:17:25;4.60;;;4.00;;
11000;SDS011;5553;48.506;8.870;2023-02-28T04:19:53;3.90;;;3.43;;
11000;SDS011;5553;48.506;8.870;2023-02-28T04:22:22;5.83;;;3.33;;
11000;SDS011;5553;48.506;8.870;2023-02-28T04:24:54;7.60;;;3.80;;
11000;SDS011;5553;48.506;8.870;2023-02-28T04:27:23;4.60;;;3.77;;
11000;SDS011;5553;48.506;8.870;2023-02-28T04:29:51;4.70;;;3.63;;
11000;SDS011;5553;48.506;8.870;2023-02-28T04:32:19;5.60;;;3.90;;
11000;SDS011;5553;48.506;8.870;2023-02-28T04:34:47;8.40;;;4.03;;
11000;SDS011;5553;48.506;8.870;2023-02-28T04:37:16;7.50;;;4.90;;
11000;SDS011;5553;48.506;8.870;2023-02-28T04:39:44;5.97;;;4.30;;
11000;SDS011;5553;48.506;8.870;2023-02-28T04:42:15;6.17;;;4.30;;
11000;SDS011;5553;48.506;8.870;2023-02-28T04:44:43;8.27;;;4.63;;
11000;SDS011;5553;48.506;8.870;2023-02-28T04:47:12;6.70;;;3.90;;
11000;SDS011;5553;48.506;8.870;2023-02-28T04:49:40;6.77;;;4.10;;
11000;SDS011;5553;48.506;8.870;2023-02-28T04:52:09;6.60;;;4.87;;
11000;SDS011;5553;48.506;8.870;2023-02-28T04:54:38;7.93;;;4.97;;
11000;SDS011;5553;48.506;8.870;2023-02-28T04:57:06;8.90;;;4.60;;
11000;SDS011;5553;48.506;8.870;2023-02-28T04:59:37;5.63;;;4.23;;
11000;SDS011;5553;48.506;8.870;2023-02-28T05:02:06;9.70;;;5.87;;
11000;SDS011;5553;48.506;8.870;2023-02-28T05:04:34;9.37;;;5.23;;
11000;SDS011;5553;48.506;8.870;2023-02-28T05:07:03;4.77;;;3.90;;
11000;SDS011;5553;48.506;8.870;2023-02-28T05:09:31;12.63;;;4.70;;
11000;SDS011;5553;48.506;8.870;2023-02-28T05:12:00;8.10;;;5.13;;
11000;SDS011;5553;48.506;8.870;2023-02-28T05:14:29;8.10;;;5.20;;
11000;SDS011;5553;48.506;8.870;2023-02-28T05:16:59;7.80;;;5.20;;
11000;SDS011;5553;48.506;8.870;2023-02-28T05:19:28;6.53;;;4.30;;
11000;SDS011;5553;48.506;8.870;2023-02-28T05:21:56;7.23;;;5.23;;
11000;SDS011;5553;48.506;8.870;2023-02-28T05:24:24;7.93;;;4.90;;
11000;SDS011;5553;48.506;8.870;2023-02-28T05:26:53;9.63;;;5.90;;
11000;SDS011;5553;48.506;8.870;2023-02-28T05:29:23;7.30;;;4.70;;
11000;SDS011;5553;48.506;8.870;2023-02-28T05:31:51;7.93;;;4.70;;
11000;SDS011;5553;48.506;8.870;2023-02-28T05:34:22;9.10;;;5.37;;
11000;SDS011;5553;48.506;8.870;2023-02-28T05:36:50;8.37;;;5.40;;
11000;SDS011;5553;48.506;8.870;2023-02-28T05:39:19;7.73;;;5.37;;
11000;SDS011;5553;48.506;8.870;2023-02-28T05:41:47;8.53;;;5.70;;
11000;SDS011;5553;48.506;8.870;2023-02-28T05:44:15;8.97;;;5.90;;
11000;SDS011;5553;48.506;8.870;2023-02-28T05:46:44;7.47;;;5.63;;
11000;SDS011;5553;48.506;8.870;2023-02-28T05:49:12;6.20;;;4.50;;
11000;SDS011;5553;48.506;8.870;2023-02-28T05:51:43;6.37;;;4.53;;
11000;SDS011;5553;48.506;8.870;2023-02-28T05:54:12;8.90;;;5.13;;
11000;SDS011;5553;48.506;8.870;2023-02-28T05:56:40;8.60;;;5.23;;
11000;SDS011;5553;48.506;8.870;2023-02-28T05:59:10;11.60;;;5.53;;
11000;SDS011;5553;48.506;8.870;2023-02-28T06:01:40;5.87;;;4.97;;
11000;SDS011;5553;48.506;8.870;2023-02-28T06:04:13;9.00;;;5.10;;
11000;SDS011;5553;48.506;8.870;2023-02-28T06:06:46;7.07;;;4.63;;
11000;SDS011;5553;48.506;8.870;2023-02-28T06:09:16;8.03;;;5.33;;
11000;SDS011;5553;48.506;8.870;2023-02-28T06:11:45;7.73;;;5.27;;
11000;SDS011;5553;48.506;8.870;2023-02-28T06:14:14;7.77;;;5.80;;
11000;SDS011;5553;48.506;8.870;2023-02-28T06:16:43;7.13;;;4.87;;
11000;SDS011;5553;48.506;8.870;2023-02-28T06:19:12;10.77;;;6.07;;
11000;SDS011;5553;48.506;8.870;2023-02-28T06:21:41;9.97;;;5.90;;
11000;SDS011;5553;48.506;8.870;2023-02-28T06:24:12;7.17;;;5.00;;
11000;SDS011;5553;48.506;8.870;2023-02-28T06:26:40;8.37;;;4.77;;
11000;SDS011;5553;48.506;8.870;2023-02-28T06:29:08;11.60;;;6.00;;
11000;SDS011;5553;48.506;8.870;2023-02-28T06:31:37;11.00;;;5.47;;
11000;SDS011;5553;48.506;8.870;2023-02-28T06:34:05;10.47;;;6.00;;
11000;SDS011;5553;48.506;8.870;2023-02-28T06:36:36;11.83;;;5.93;;
11000;SDS011;5553;48.506;8.870;2023-02-28T06:39:05;9.97;;;6.10;;
11000;SDS011;5553;48.506;8.870;2023-02-28T06:41:36;11.40;;;6.10;;
11000;SDS011;5553;48.506;8.870;2023-02-28T06:44:05;8.60;;;5.90;;
11000;SDS011;5553;48.506;8.870;2023-02-28T06:46:39;8.33;;;6.10;;
11000;SDS011;5553;48.506;8.870;2023-02-28T06:49:08;13.20;;;6.77;;
11000;SDS011;5553;48.506;8.870;2023-02-28T06:51:38;9.53;;;6.03;;
11000;SDS011;5553;48.506;8.870;2023-02-28T06:54:10;9.23;;;5.53;;
11000;SDS011;5553;48.506;8.870;2023-02-28T06:56:41;8.53;;;6.37;;
11000;SDS011;5553;48.506;8.870;2023-02-28T06:59:10;10.67;;;6.53;;
11000;SDS011;5553;48.506;8.870;2023-02-28T07:01:38;12.60;;;5.80;;
11000;SDS011;5553;48.506;8.870;2023-02-28T07:04:07;12.40;;;6.80;;
11000;SDS011;5553;48.506;8.870;2023-02-28T07:06:35;13.50;;;7.63;;
11000;SDS011;5553;48.506;8.870;2023-02-28T07:09:03;11.70;;;6.87;;
11000;SDS011;5553;48.506;8.870;2023-02-28T07:11:32;8.53;;;7.37;;
11000;SDS011;5553;48.506;8.870;2023-02-28T07:14:03;10.43;;;6.30;;
11000;SDS011;5553;48.506;8.870;2023-02-28T07:16:31;12.93;;;6.33;;
11000;SDS011;5553;48.506;8.870;2023-02-28T07:18:59;10.20;;;6.00;;
11000;SDS011;5553;48.506;8.870;2023-02-28T07:21:27;8.87;;;5.67;;
11000;SDS011;5553;48.506;8.870;2023-02-28T07:23:56;11.33;;;6.83;;
11000;SDS011;5553;48.506;8.870;2023-02-28T07:26:24;9.23;;;6.07;;
11000;SDS011;5553;48.506;8.870;2023-02-28T07:28:52;10.53;;;7.20;;
11000;SDS011;5553;48.506;8.870;2023-02-28T07:31:23;11.50;;;5.80;;
11000;SDS011;5553;48.506;8.870;2023-02-28T07:33:52;9.77;;;6.70;;
11000;SDS011;5553;48.506;8.870;2023-02-28T07:36:21;12.00;;;7.60;;
11000;SDS011;5553;48.506;8.870;2023-02-28T07:38:49;10.80;;;6.40;;
11000;SDS011;5553;48.506;8.870;2023-02-28T07:41:19;10.47;;;5.83;;
11000;SDS011;5553;48.506;8.870;2023-02-28T07:43:53;10.33;;;5.87;;
11000;SDS011;5553;48.506;8.870;2023-02-28T07:46:25;10.10;;;6.50;;
11000;SDS011;5553;48.506;8.870;2023-02-28T07:49:00;14.17;;;6.83;;
11000;SDS011;5553;48.506;8.870;2023-02-28T07:51:28;11.10;;;6.63;;
11000;SDS011;5553;48.506;8.870;2023-02-28T07:53:57;14.70;;;7.53;;
11000;SDS011;5553;48.506;8.870;2023-02-28T07:56:25;9.83;;;7.20;;
11000;SDS011;5553;48.506;8.870;2023-02-28T07:58:54;13.80;;;8.63;;
11000;SDS011;5553;48.506;8.870;2023-02-28T08:01:24;10.40;;;7.40;;
11000;SDS011;5553;48.506;8.870;2023-02-28T08:03:53;15.70;;;8.03;;
11000;SDS011;5553;48.506;8.870;2023-02-28T08:06:23;13.33;;;7.77;;
11000;SDS011;5553;48.506;8.870;2023-02-28T08:08:52;10.77;;;6.90;;
11000;SDS011;5553;48.506;8.870;2023-02-28T08:11:21;13.50;;;8.40;;
11000;SDS011;5553;48.506;8.870;2023-02-28T08:13:50;10.50;;;7.10;;
11000;SDS011;5553;48.506;8.870;2023-02-28T08:16:18;9.97;;;6.03;;
11000;SDS011;5553;48.506;8.870;2023-02-28T08:18:49;11.10;;;7.60;;
11000;SDS011;5553;48.506;8.870;2023-02-28T08:21:19;12.03;;;7.63;;
11000;SDS011;5553;48.506;8.870;2023-02-28T08:23:48;14.07;;;7.43;;
11000;SDS011;5553;48.506;8.870;2023-02-28T08:26:18;11.53;;;7.30;;
11000;SDS011;5553;48.506;8.870;2023-02-28T08:28:47;16.43;;;8.70;;
11000;SDS011;5553;48.506;8.870;2023-02-28T08:31:15;15.07;;;9.20;;
11000;SDS011;5553;48.506;8.870;2023-02-28T08:33:44;13.53;;;7.53;;
11000;SDS011;5553;48.506;8.870;2023-02-28T08:36:16;9.80;;;6.80;;
11000;SDS011;5553;48.506;8.870;2023-02-28T08:38:44;12.10;;;6.90;;
11000;SDS011;5553;48.506;8.870;2023-02-28T08:41:12;14.20;;;7.83;;
11000;SDS011;5553;48.506;8.870;2023-02-28T08:43:41;15.00;;;7.57;;
11000;SDS011;5553;48.506;8.870;2023-02-28T08:46:10;11.70;;;7.80;;
11000;SDS011;5553;48.506;8.870;2023-02-28T08:48:39;14.97;;;8.30;;
11000;SDS011;5553;48.506;8.870;2023-02-28T08:51:09;15.83;;;8.50;;
11000;SDS011;5553;48.506;8.870;2023-02-28T08:53:44;12.60;;;7.90;;
11000;SDS011;5553;48.506;8.870;2023-02-28T08:56:15;12.00;;;8.00;;
11000;SDS011;5553;48.506;8.870;2023-02-28T08:58:44;15.27;;;8.30;;
11000;SDS011;5553;48.506;8.870;2023-02-28T09:01:14;14.00;;;8.70;;
11000;SDS011;5553;48.506;8.870;2023-02-28T09:03:44;17.17;;;8.00;;
11000;SDS011;5553;48.506;8.870;2023-02-28T09:06:14;11.20;;;7.70;;
11000;SDS011;5553;48.506;8.870;2023-02-28T09:08:45;12.77;;;9.50;;
11000;SDS011;5553;48.506;8.870;2023-02-28T09:11:14;13.10;;;7.73;;
11000;SDS011;5553;48.506;8.870;2023-02-28T09:13:44;19.40;;;9.80;;
11000;SDS011;5553;48.506;8.870;2023-02-28T09:16:13;13.97;;;9.50;;
11000;SDS011;5553;48.506;8.870;2023-02-28T09:18:42;20.80;;;12.37;;
11000;SDS011;5553;48.506;8.870;2023-02-28T09:21:12;16.43;;;10.83;;
11000;SDS011;5553;48.506;8.870;2023-02-28T09:23:42;17.00;;;11.33;;
11000;SDS011;5553;48.506;8.870;2023-02-28T09:26:16;14.90;;;9.53;;
11000;SDS011;5553;48.506;8.870;2023-02-28T09:28:45;21.23;;;11.03;;
11000;SDS011;5553;48.506;8.870;2023-02-28T09:31:14;18.30;;;12.50;;
11000;SDS011;5553;48.506;8.870;2023-02-28T09:33:45;17.83;;;10.23;;
11000;SDS011;5553;48.506;8.870;2023-02-28T09:36:13;13.37;;;8.70;;
11000;SDS011;5553;48.506;8.870;2023-02-28T09:38:42;13.83;;;9.97;;
11000;SDS011;5553;48.506;8.870;2023-02-28T09:41:12;17.47;;;11.93;;
11000;SDS011;5553;48.506;8.870;2023-02-28T09:43:47;17.30;;;10.83;;
11000;SDS011;5553;48.506;8.870;2023-02-28T09:46:27;16.07;;;10.23;;
11000;SDS011;5553;48.506;8.870;2023-02-28T09:48:59;15.10;;;10.60;;
11000;SDS011;5553;48.506;8.870;2023-02-28T09:51:33;15.03;;;9.70;;
11000;SDS011;5553;48.506;8.870;2023-02-28T09:54:06;17.00;;;10.30;;
11000;SDS011;5553;48.506;8.870;2023-02-28T09:56:47;15.43;;;10.63;;
11000;SDS011;5553;48.506;8.870;2023-02-28T09:59:36;16.07;;;10.50;;
11000;SDS011;5553;48.506;8.870;2023-02-28T10:02:21;14.53;;;9.80;;
11000;SDS011;5553;48.506;8.870;2023-02-28T10:05:07;17.30;;;10.50;;
11000;SDS011;5553;48.506;8.870;2023-02-28T10:10:33;15.20;;;9.70;;
11000;SDS011;5553;48.506;8.870;2023-02-28T10:13:11;11.43;;;9.20;;
11000;SDS011;5553;48.506;8.870;2023-02-28T10:15:44;19.23;;;9.50;;
11000;SDS011;5553;48.506;8.870;2023-02-28T10:18:20;13.77;;;9.17;;
11000;SDS011;5553;48.506;8.870;2023-02-28T10:20:52;19.07;;;10.23;;
11000;SDS011;5553;48.506;8.870;2023-02-28T10:23:23;11.93;;;9.07;;
11000;SDS011;5553;48.506;8.870;2023-02-28T10:25:55;18.40;;;10.57;;
11000;SDS011;5553;48.506;8.870;2023-02-28T10:28:30;15.20;;;8.80;;
11000;SDS011;5553;48.506;8.870;2023-02-28T10:30:58;14.70;;;10.07;;
11000;SDS011;5553;48.506;8.870;2023-02-28T10:33:28;16.43;;;8.97;;
11000;SDS011;5553;48.506;8.870;2023-02-28T10:35:59;16.80;;;11.10;;
11000;SDS011;5553;48.506;8.870;2023-02-28T10:38:31;21.70;;;11.47;;
11000;SDS011;5553;48.506;8.870;2023-02-28T10:41:05;16.10;;;10.90;;
11000;SDS011;5553;48.506;8.870;2023-02-28T10:43:37;16.50;;;10.87;;
11000;SDS011;5553;48.506;8.870;2023-02-28T10:46:10;11.87;;;8.37;;
11000;SDS011;5553;48.506;8.870;2023-02-28T10:48:57;20.23;;;13.20;;
11000;SDS011;5553;48.506;8.870;2023-02-28T10:51:34;15.97;;;9.63;;
11000;SDS011;5553;48.506;8.870;2023-02-28T10:54:04;16.93;;;10.57;;
11000;SDS011;5553;48.506;8.870;2023-02-28T10:56:32;15.50;;;9.70;;
11000;SDS011;5553;48.506;8.870;2023-02-28T10:59:19;14.30;;;9.20;;
11000;SDS011;5553;48.506;8.870;2023-02-28T11:01:55;11.97;;;8.47;;
11000;SDS011;5553;48.506;8.870;2023-02-28T11:04:35;19.53;;;10.93;;
11000;SDS011;5553;48.506;8.870;2023-02-28T11:07:05;17.40;;;10.90;;
11000;SDS011;5553;48.506;8.870;2023-02-28T11:09:44;13.40;;;8.90;;
11000;SDS011;5553;48.506;8.870;2023-02-28T11:12:20;15.57;;;9.73;;
11000;SDS011;5553;48.506;8.870;2023-02-28T11:14:54;14.83;;;9.90;;
11000;SDS011;5553;48.506;8.870;2023-02-28T11:17:26;13.90;;;8.30;;
11000;SDS011;5553;48.506;8.870;2023-02-28T11:19:56;14.73;;;9.53;;
11000;SDS011;5553;48.506;8.870;2023-02-28T11:22:29;15.30;;;9.27;;
11000;SDS011;5553;48.506;8.870;2023-02-28T11:25:01;14.60;;;9.73;;
11000;SDS011;5553;48.506;8.870;2023-02-28T11:27:45;11.33;;;8.30;;
11000;SDS011;5553;48.506;8.870;2023-02-28T11:33:21;15.27;;;9.90;;
11000;SDS011;5553;48.506;8.870;2023-02-28T11:35:51;13.37;;;9.07;;
11000;SDS011;5553;48.506;8.870;2023-02-28T11:38:25;14.47;;;8.20;;
11000;SDS011;5553;48.506;8.870;2023-02-28T11:41:02;14.40;;;9.23;;
11000;SDS011;5553;48.506;8.870;2023-02-28T11:43:41;22.83;;;10.97;;
11000;SDS011;5553;48.506;8.870;2023-02-28T11:46:25;16.63;;;10.53;;
11000;SDS011;5553;48.506;8.870;2023-02-28T11:49:02;14.40;;;9.17;;
11000;SDS011;5553;48.506;8.870;2023-02-28T11:51:47;13.93;;;9.13;;
11000;SDS011;5553;48.506;8.870;2023-02-28T11:57:00;14.00;;;9.67;;
11000;SDS011;5553;48.506;8.870;2023-02-28T11:59:48;15.60;;;8.93;;
11000;SDS011;5553;48.506;8.870;2023-02-28T12:02:31;14.00;;;8.70;;
11000;SDS011;5553;48.506;8.870;2023-02-28T12:05:23;12.93;;;7.73;;
11000;SDS011;5553;48.506;8.870;2023-02-28T12:08:00;13.80;;;8.10;;
11000;SDS011;5553;48.506;8.870;2023-02-28T12:10:35;14.80;;;9.20;;
11000;SDS011;5553;48.506;8.870;2023-02-28T12:13:21;15.80;;;9.60;;
11000;SDS011;5553;48.506;8.870;2023-02-28T12:16:10;14.63;;;9.30;;
11000;SDS011;5553;48.506;8.870;2023-02-28T12:19:03;16.07;;;9.97;;
11000;SDS011;5553;48.506;8.870;2023-02-28T12:21:44;16.00;;;9.33;;
11000;SDS011;5553;48.506;8.870;2023-02-28T12:24:30;13.43;;;9.20;;
11000;SDS011;5553;48.506;8.870;2023-02-28T12:27:21;19.17;;;11.30;;
11000;SDS011;5553;48.506;8.870;2023-02-28T12:29:53;19.90;;;10.67;;
11000;SDS011;5553;48.506;8.870;2023-02-28T12:32:26;13.93;;;8.70;;
11000;SDS011;5553;48.506;8.870;2023-02-28T12:35:04;15.90;;;10.40;;
11000;SDS011;5553;48.506;8.870;2023-02-28T12:37:41;13.80;;;9.50;;
11000;SDS011;5553;48.506;8.870;2023-02-28T12:40:14;13.33;;;9.97;;
11000;SDS011;5553;48.506;8.870;2023-02-28T12:42:47;12.80;;;10.10;;
11000;SDS011;5553;48.506;8.870;2023-02-28T12:45:19;15.77;;;9.60;;
11000;SDS011;5553;48.506;8.870;2023-02-28T12:47:52;12.27;;;8.90;;
11000;SDS011;5553;48.506;8.870;2023-02-28T12:50:28;14.10;;;10.10;;
11000;SDS011;5553;48.506;8.870;2023-02-28T12:52:58;16.83;;;11.23;;
11000;SDS011;5553;48.506;8.870;2023-02-28T12:55:33;13.53;;;9.40;;
11000;SDS011;5553;48.506;8.870;2023-02-28T12:58:08;15.90;;;10.20;;
11000;SDS011;5553;48.506;8.870;2023-02-28T13:00:46;15.93;;;9.60;;
11000;SDS011;5553;48.506;8.870;2023-02-28T13:06:32;16.53;;;10.90;;
11000;SDS011;5553;48.506;8.870;2023-02-28T13:09:20;12.80;;;9.43;;
11000;SDS011;5553;48.506;8.870;2023-02-28T13:11:49;13.40;;;9.10;;
11000;SDS011;5553;48.506;8.870;2023-02-28T13:14:20;14.03;;;10.00;;
11000;SDS011;5553;48.506;8.870;2023-02-28T13:16:56;14.97;;;9.40;;
11000;SDS011;5553;48.506;8.870;2023-02-28T13:19:28;16.43;;;10.60;;
11000;SDS011;5553;48.506;8.870;2023-02-28T13:22:05;12.13;;;9.53;;
11000;SDS011;5553;48.506;8.870;2023-02-28T13:24:46;14.53;;;9.20;;
11000;SDS011;5553;48.506;8.870;2023-02-28T13:36:00;13.97;;;9.50;;
11000;SDS011;5553;48.506;8.870;2023-02-28T13:38:42;16.03;;;11.67;;
11000;SDS011;5553;48.506;8.870;2023-02-28T13:44:14;34.57;;;17.40;;
11000;SDS011;5553;48.506;8.870;2023-02-28T13:49:47;28.30;;;15.60;;
11000;SDS011;5553;48.506;8.870;2023-02-28T13:52:17;19.87;;;12.37;;
11000;SDS011;5553;48.506;8.870;2023-02-28T13:54:59;21.80;;;12.87;;
11000;SDS011;5553;48.506;8.870;2023-02-28T13:57:50;15.57;;;10.80;;
11000;SDS011;5553;48.506;8.870;2023-02-28T14:00:34;13.43;;;10.00;;
11000;SDS011;5553;48.506;8.870;2023-02-28T14:03:25;13.93;;;9.20;;
11000;SDS011;5553;48.506;8.870;2023-02-28T14:06:17;15.37;;;10.07;;
11000;SDS011;5553;48.506;8.870;2023-02-28T14:08:52;17.20;;;11.60;;
11000;SDS011;5553;48.506;8.870;2023-02-28T14:11:28;15.87;;;10.60;;
11000;SDS011;5553;48.506;8.870;2023-02-28T14:13:59;14.30;;;10.37;;
11000;SDS011;5553;48.506;8.870;2023-02-28T14:16:34;14.10;;;10.17;;
11000;SDS011;5553;48.506;8.870;2023-02-28T14:19:09;15.40;;;11.03;;
11000;SDS011;5553;48.506;8.870;2023-02-28T14:21:43;16.20;;;11.70;;
11000;SDS011;5553;48.506;8.870;2023-02-28T14:24:40;16.00;;;11.97;;
11000;SDS011;5553;48.506;8.870;2023-02-28T14:30:14;14.60;;;10.50;;
11000;SDS011;5553;48.506;8.870;2023-02-28T14:33:04;15.07;;;10.60;;
11000;SDS011;5553;48.506;8.870;2023-02-28T14:35:50;14.43;;;10.57;;
11000;SDS011;5553;48.506;8.870;2023-02-28T14:38:29;15.90;;;10.53;;
11000;SDS011;5553;48.506;8.870;2023-02-28T14:41:01;15.87;;;10.80;;
11000;SDS011;5553;48.506;8.870;2023-02-28T16:20:51;14.93;;;9.50;;
11000;SDS011;5553;48.506;8.870;2023-02-28T16:23:19;13.90;;;9.20;;
11000;SDS011;5553;48.506;8.870;2023-02-28T16:25:47;17.57;;;10.97;;
11000;SDS011;5553;48.506;8.870;2023-02-28T16:28:18;20.63;;;11.47;;
11000;SDS011;5553;48.506;8.870;2023-02-28T16:30:48;15.10;;;10.17;;
11000;SDS011;5553;48.506;8.870;2023-02-28T16:33:19;15.50;;;9.97;;
11000;SDS011;5553;48.506;8.870;2023-02-28T16:35:48;15.37;;;9.87;;
11000;SDS011;5553;48.506;8.870;2023-02-28T16:38:18;15.20;;;9.70;;
11000;SDS011;5553;48.506;8.870;2023-02-28T16:40:48;15.27;;;11.17;;
11000;SDS011;5553;48.506;8.870;2023-02-28T16:43:18;17.27;;;9.67;;
11000;SDS011;5553;48.506;8.870;2023-02-28T16:45:51;17.13;;;10.57;;
11000;SDS011;5553;48.506;8.870;2023-02-28T16:48:23;15.60;;;9.90;;
11000;SDS011;5553;48.506;8.870;2023-02-28T16:50:54;15.00;;;8.83;;
11000;SDS011;5553;48.506;8.870;2023-02-28T16:53:22;12.07;;;9.20;;
11000;SDS011;5553;48.506;8.870;2023-02-28T16:55:51;15.53;;;10.40;;
11000;SDS011;5553;48.506;8.870;2023-02-28T16:58:19;21.33;;;12.77;;
11000;SDS011;5553;48.506;8.870;2023-02-28T17:00:50;15.50;;;10.23;;
11000;SDS011;5553;48.506;8.870;2023-02-28T17:03:21;12.93;;;10.20;;
11000;SDS011;5553;48.506;8.870;2023-02-28T17:05:54;14.03;;;9.87;;
11000;SDS011;5553;48.506;8.870;2023-02-28T17:08:23;15.80;;;9.30;;
11000;SDS011;5553;48.506;8.870;2023-02-28T17:10:53;17.50;;;9.90;;
11000;SDS011;5553;48.506;8.870;2023-02-28T17:13:21;22.30;;;10.57;;
11000;SDS011;5553;48.506;8.870;2023-02-28T17:15:50;12.60;;;9.23;;
11000;SDS011;5553;48.506;8.870;2023-02-28T17:18:18;15.77;;;9.30;;
11000;SDS011;5553;48.506;8.870;2023-02-28T17:20:48;16.83;;;10.20;;
11000;SDS011;5553;48.506;8.870;2023-02-28T17:23:20;16.43;;;10.07;;
11000;SDS011;5553;48.506;8.870;2023-02-28T17:25:48;18.87;;;11.77;;
11000;SDS011;5553;48.506;8.870;2023-02-28T17:28:20;26.07;;;12.83;;
11000;SDS011;5553;48.506;8.870;2023-02-28T17:30:49;22.03;;;13.03;;
11000;SDS011;5553;48.506;8.870;2023-02-28T17:33:17;22.20;;;11.13;;
11000;SDS011;5553;48.506;8.870;2023-02-28T17:35:46;24.40;;;12.50;;